Time;durP1;ratioP1;P1;durP2;ratioP2;P2;SDS_P1;SDS_P2;PMS_P1;PMS_P2;Temp;Humidity;BMP_temperature;BMP_pressure;BME280_temperature;BME280_humidity;BME280_pressure;Samples;Min_cycle;Max_cycle;Signal;HPM_P1;HPM_P2
2022/05/18 00:01:16;;;;;;;8.60;4.55;;;;;;;20.73;51.78;101789.19;4911804;28;118715;-77
2022/05/18 00:03:45;;;;;;;8.57;5.05;;;;;;;20.69;51.80;101793.06;4908551;28;124359;-77
2022/05/18 00:06:13;;;;;;;8.05;5.18;;;;;;;20.63;52.07;101798.91;4894465;28;124137;-77
2022/05/18 00:08:40;;;;;;;9.23;4.97;;;;;;;20.59;52.15;101802.78;4893967;28;119739;-76
2022/05/18 00:11:11;;;;;;;8.73;4.80;;;;;;;20.54;52.05;101799.53;4908284;28;117151;-76
2022/05/18 00:13:40;;;;;;;8.85;4.57;;;;;;;20.49;52.27;101809.75;4894651;28;123670;-76
2022/05/18 00:16:07;;;;;;;7.93;5.32;;;;;;;20.45;52.30;101810.97;4901609;28;123886;-76
2022/05/18 00:18:35;;;;;;;9.35;5.07;;;;;;;20.43;52.36;101803.00;4911077;28;118631;-76
2022/05/18 00:21:04;;;;;;;8.88;5.10;;;;;;;20.40;52.64;101804.09;4903965;28;118091;-76
2022/05/18 00:23:31;;;;;;;10.10;5.55;;;;;;;20.40;52.78;101798.69;4895176;28;124016;-76
2022/05/18 00:25:59;;;;;;;10.10;5.55;;;;;;;20.38;53.22;101800.66;4894933;28;124395;-76
2022/05/18 00:28:27;;;;;;;8.65;5.03;;;;;;;20.37;53.16;101798.91;4887692;28;118397;-76
2022/05/18 00:30:54;;;;;;;10.40;5.10;;;;;;;20.36;53.00;101807.97;4921499;28;117885;-76
2022/05/18 00:33:21;;;;;;;8.18;5.70;;;;;;;20.34;53.19;101804.53;4905490;28;123619;-76
2022/05/18 00:35:48;;;;;;;6.82;4.78;;;;;;;20.33;53.20;101810.00;4905302;28;123412;-76
2022/05/18 00:38:16;;;;;;;6.63;4.90;;;;;;;20.32;53.07;101817.19;4904059;28;120491;-76
2022/05/18 00:40:47;;;;;;;9.48;5.68;;;;;;;20.29;53.30;101812.06;4900169;28;119708;-76
2022/05/18 00:43:30;;;;;;;8.57;5.05;;;;;;;20.27;53.52;101808.63;4919553;28;123384;-78
2022/05/18 00:46:00;;;;;;;10.52;5.70;;;;;;;20.25;53.35;101810.56;4903051;28;124742;-76
2022/05/18 00:48:27;;;;;;;10.35;5.70;;;;;;;20.22;53.49;101817.00;4903594;28;118258;-77
2022/05/18 00:50:58;;;;;;;9.88;5.57;;;;;;;20.20;53.57;101801.94;4920082;28;119217;-76
2022/05/18 00:53:30;;;;;;;7.72;5.45;;;;;;;20.18;53.90;101809.25;4918845;28;125807;-76
2022/05/18 00:56:02;;;;;;;9.63;5.10;;;;;;;20.15;53.90;101809.47;4887919;28;123491;-76
2022/05/18 00:58:49;;;;;;;7.85;5.20;;;;;;;20.12;53.69;101809.69;4915234;28;119125;-76
2022/05/18 01:01:17;;;;;;;7.72;5.13;;;;;;;20.11;53.84;101807.97;4906964;28;117219;-77
2022/05/18 01:03:47;;;;;;;6.68;4.97;;;;;;;20.07;53.96;101807.31;4905218;28;122975;-76
2022/05/18 01:06:40;;;;;;;9.68;5.30;;;;;;;20.06;53.92;101815.47;4923499;28;122903;-76
2022/05/18 01:09:12;;;;;;;10.05;5.00;;;;;;;20.03;53.86;101817.41;4904827;28;118709;-76
2022/05/18 01:11:39;;;;;;;8.18;5.35;;;;;;;20.01;53.88;101816.66;4919047;28;118629;-76
2022/05/18 01:14:17;;;;;;;9.70;5.55;;;;;;;20.00;53.89;101812.28;4913208;28;124026;-76
2022/05/18 01:16:45;;;;;;;7.25;5.10;;;;;;;19.99;53.95;101821.28;4916622;28;123201;-77
2022/05/18 01:19:23;;;;;;;6.95;4.93;;;;;;;19.99;54.09;101815.91;4906963;28;118944;-77
2022/05/18 01:22:02;;;;;;;7.45;5.20;;;;;;;19.98;54.06;101814.19;4903028;28;117605;-77
2022/05/18 01:24:37;;;;;;;8.13;5.10;;;;;;;19.95;53.95;101813.56;4906552;28;124189;-77
2022/05/18 01:27:04;;;;;;;;;;;;;;;19.88;53.44;101813.13;4921018;28;122724;-77
2022/05/18 01:29:31;;;;;;;7.43;5.20;;;;;;;19.86;53.55;101815.03;4909905;28;120437;-77
2022/05/18 01:32:02;;;;;;;6.65;4.70;;;;;;;19.84;53.73;101808.91;4904180;28;119680;-77
2022/05/18 01:34:33;;;;;;;6.90;4.50;;;;;;;19.80;53.75;101810.09;4905700;28;124632;-77
2022/05/18 01:37:00;;;;;;;6.55;4.43;;;;;;;19.76;53.68;101813.94;4905630;28;122843;-77
2022/05/18 01:39:41;;;;;;;6.75;4.38;;;;;;;19.72;53.69;101817.78;4896576;28;119018;-76
2022/05/18 01:42:46;;;;;;;6.43;4.70;;;;;;;19.68;53.53;101816.28;4876162;28;119212;-77
2022/05/18 01:45:13;;;;;;;9.68;4.57;;;;;;;19.62;53.64;101813.03;4897737;28;123948;-77
2022/05/18 01:47:41;;;;;;;8.82;4.70;;;;;;;19.58;53.76;101816.03;4910119;28;123865;-77
2022/05/18 01:50:12;;;;;;;7.05;4.75;;;;;;;19.55;54.19;101811.75;4908733;28;119216;-76
2022/05/18 01:52:40;;;;;;;7.90;4.50;;;;;;;19.53;54.13;101807.41;4903216;28;118679;-77
2022/05/18 01:55:08;;;;;;;6.50;4.68;;;;;;;19.52;54.08;101811.94;4906119;28;123518;-76
2022/05/18 01:57:36;;;;;;;7.85;4.78;;;;;;;19.49;53.98;101817.50;4905297;28;122745;-76
2022/05/18 02:00:05;;;;;;;6.13;4.68;;;;;;;19.46;53.75;101809.69;4896608;28;119615;-76
2022/05/18 02:02:39;;;;;;;6.22;4.30;;;;;;;19.42;54.17;101810.81;4889456;28;119741;-77
2022/05/18 02:05:08;;;;;;;7.88;5.30;;;;;;;19.40;53.91;101818.13;4910684;28;98738;-77
2022/05/18 02:07:35;;;;;;;9.27;5.10;;;;;;;19.36;54.32;101821.97;4911884;28;123163;-76
2022/05/18 02:10:03;;;;;;;9.63;5.40;;;;;;;19.32;54.62;101821.31;4907071;28;119299;-76
2022/05/18 02:12:30;;;;;;;7.72;5.05;;;;;;;19.29;54.59;101810.81;4895453;28;118951;-76
2022/05/18 02:14:57;;;;;;;6.25;4.55;;;;;;;19.26;54.58;101817.22;4907501;28;123334;-76
2022/05/18 02:17:25;;;;;;;6.63;4.82;;;;;;;19.22;54.80;101815.72;4904279;28;123183;-76
2022/05/18 02:19:52;;;;;;;6.43;5.13;;;;;;;19.18;54.69;101814.19;4894827;28;119732;-78
2022/05/18 02:22:19;;;;;;;8.32;4.97;;;;;;;19.18;54.84;101814.19;4878847;28;119288;-76
2022/05/18 02:24:46;;;;;;;8.73;4.88;;;;;;;19.14;54.86;101818.03;4890624;28;123975;-76
2022/05/18 02:27:13;;;;;;;8.93;5.38;;;;;;;19.10;54.97;101812.97;4893282;28;124069;-76
2022/05/18 02:29:41;;;;;;;6.68;4.80;;;;;;;19.05;54.99;101818.66;4915299;28;118460;-76
2022/05/18 02:32:09;;;;;;;9.00;4.90;;;;;;;19.04;55.11;101816.91;4904433;28;117875;-76
2022/05/18 02:34:37;;;;;;;7.35;4.72;;;;;;;19.03;55.33;101815.19;4903770;28;124194;-76
2022/05/18 02:37:04;;;;;;;8.00;5.03;;;;;;;18.99;54.99;101813.69;4906973;28;123757;-76
2022/05/18 02:39:31;;;;;;;8.05;4.50;;;;;;;18.98;55.07;101811.94;4889148;28;119287;-76
2022/05/18 02:41:58;;;;;;;7.50;4.72;;;;;;;18.95;55.15;101812.13;4903269;28;118847;-76
2022/05/18 02:44:25;;;;;;;6.63;4.40;;;;;;;18.92;54.97;101806.97;4893891;28;123948;-76
2022/05/18 02:46:56;;;;;;;10.55;4.32;;;;;;;18.90;55.26;101803.53;4893413;28;122799;-77
2022/05/18 02:49:24;;;;;;;8.55;4.72;;;;;;;18.86;55.07;101809.09;4888989;28;119431;-76
2022/05/18 02:51:52;;;;;;;6.70;4.80;;;;;;;18.85;55.10;101802.03;4891404;28;118993;-77
2022/05/18 02:57:06;;;;;;;7.10;4.50;;;;;;;18.83;55.05;101798.53;4902992;28;124016;-77
2022/05/18 02:59:34;;;;;;;8.40;4.85;;;;;;;18.83;55.39;101797.69;4905772;28;119241;-77
2022/05/18 03:02:01;;;;;;;7.25;4.60;;;;;;;18.82;55.17;101804.91;4903468;28;118839;-77
2022/05/18 03:04:32;;;;;;;7.15;4.22;;;;;;;18.81;55.19;101803.16;4889245;28;123761;-77
2022/05/18 03:07:00;;;;;;;5.95;4.05;;;;;;;18.81;55.16;101811.22;4894604;28;124898;-76
2022/05/18 03:09:27;;;;;;;7.78;4.88;;;;;;;18.80;55.20;101804.13;4890885;28;120325;-76
2022/05/18 03:11:55;;;;;;;7.78;4.22;;;;;;;18.79;55.28;101815.78;4918994;28;119572;-76
2022/05/18 03:14:23;;;;;;;8.10;4.80;;;;;;;18.79;55.45;101822.97;4906392;28;123968;-76
2022/05/18 03:16:51;;;;;;;6.15;4.65;;;;;;;18.77;55.49;101825.75;4905773;28;123157;-76
2022/05/18 03:19:18;;;;;;;11.55;5.20;;;;;;;18.78;55.56;101826.59;4906719;28;118316;-76
2022/05/18 03:24:31;;;;;;;7.75;4.53;;;;;;;18.79;55.82;101829.19;4887134;28;124300;-76
2022/05/18 03:26:58;;;;;;;9.80;4.20;;;;;;;18.80;55.59;101825.59;4904139;28;123641;-76
2022/05/18 03:29:26;;;;;;;7.22;4.72;;;;;;;18.82;55.89;101829.06;4903409;28;120475;-77
2022/05/18 03:31:53;;;;;;;9.07;4.13;;;;;;;18.83;55.85;101825.38;4904780;28;118741;-77
2022/05/18 03:34:20;;;;;;;8.63;5.00;;;;;;;18.83;55.79;101822.69;4891392;28;123794;-77
2022/05/18 03:36:47;;;;;;;8.43;4.60;;;;;;;18.83;55.81;101836.13;4892902;28;123170;-76
2022/05/18 03:39:15;;;;;;;7.68;4.68;;;;;;;18.81;55.82;101832.69;4902969;28;119850;-76
2022/05/18 03:41:43;;;;;;;11.43;4.57;;;;;;;18.82;55.76;101834.41;4890889;28;119225;-76
2022/05/18 03:44:10;;;;;;;8.30;4.50;;;;;;;18.82;55.76;101839.78;4906060;28;122938;-76
2022/05/18 03:46:37;;;;;;;10.18;4.38;;;;;;;18.82;55.88;101850.53;4905991;28;123946;-77
2022/05/18 03:49:05;;;;;;;10.25;4.32;;;;;;;18.82;55.63;101850.53;4906964;28;119610;-76
2022/05/18 03:51:33;;;;;;;7.47;4.22;;;;;;;18.83;55.86;101854.06;4889491;28;118728;-76
2022/05/18 03:54:00;;;;;;;9.25;4.28;;;;;;;18.84;55.93;101864.69;4908287;28;123591;-77
2022/05/18 03:56:27;;;;;;;13.57;4.60;;;;;;;18.83;55.76;101862.97;4886879;28;122358;-76
2022/05/18 03:58:54;;;;;;;9.38;4.30;;;;;;;18.84;55.95;101870.06;4903251;28;120460;-76
2022/05/18 04:01:21;;;;;;;6.50;4.40;;;;;;;18.84;56.04;101870.06;4910513;28;118987;-77
2022/05/18 04:03:49;;;;;;;8.70;4.85;;;;;;;18.84;56.08;101870.06;4903258;28;122952;-77
2022/05/18 04:06:16;;;;;;;7.55;4.28;;;;;;;18.85;56.06;101877.19;4904008;28;122598;-77
2022/05/18 04:08:43;;;;;;;6.78;4.60;;;;;;;18.88;55.98;101869.88;4894458;28;119276;-76
2022/05/18 04:11:12;;;;;;;9.00;5.05;;;;;;;18.89;56.08;101871.59;4921865;28;118400;-76
2022/05/18 04:13:39;;;;;;;8.18;5.10;;;;;;;18.91;56.16;101867.00;4912296;28;123879;-76
2022/05/18 04:16:08;;;;;;;7.68;4.85;;;;;;;18.94;56.12;101872.19;4898387;28;124384;-76
2022/05/18 04:18:36;;;;;;;7.05;5.30;;;;;;;18.95;56.21;101865.81;4909592;28;118111;-77
2022/05/18 04:21:03;;;;;;;12.30;5.18;;;;;;;18.96;56.15;101872.94;4909262;28;119209;-77
2022/05/18 04:23:31;;;;;;;7.53;4.63;;;;;;;18.97;56.25;101874.69;4908930;28;124615;-76
2022/05/18 04:25:58;;;;;;;8.77;5.20;;;;;;;18.99;56.45;101878.13;4894634;28;123571;-77
2022/05/18 04:28:25;;;;;;;9.43;5.18;;;;;;;19.00;56.04;101885.19;4901149;28;119423;-77
2022/05/18 04:30:53;;;;;;;8.25;4.85;;;;;;;19.02;56.16;101878.78;4925631;28;118674;-77
2022/05/18 04:33:23;;;;;;;7.95;4.70;;;;;;;19.03;56.36;101890.38;4908604;28;123542;-76
2022/05/18 04:35:50;;;;;;;10.30;5.03;;;;;;;19.06;56.43;101884.78;4908906;28;123531;-77
2022/05/18 04:38:20;;;;;;;8.48;5.13;;;;;;;19.08;56.41;101890.97;4898364;28;119469;-77
2022/05/18 04:40:53;;;;;;;8.30;5.63;;;;;;;19.09;56.36;101879.25;4901189;28;118906;-77
2022/05/18 04:43:21;;;;;;;15.38;5.57;;;;;;;19.13;56.33;101886.13;4899937;28;124404;-77
2022/05/18 04:45:51;;;;;;;7.75;5.45;;;;;;;19.14;56.45;101882.50;4897099;28;125542;-77
2022/05/18 04:48:20;;;;;;;8.13;5.60;;;;;;;19.18;56.61;101889.38;4910326;28;119448;-77
2022/05/18 04:50:48;;;;;;;8.38;5.45;;;;;;;19.23;56.55;101887.28;4916373;28;118804;-77
2022/05/18 04:53:17;;;;;;;8.77;6.05;;;;;;;19.31;56.65;101883.19;4911000;28;122280;-77
2022/05/18 04:55:44;;;;;;;9.05;6.07;;;;;;;19.36;56.59;101875.72;4930819;28;122899;-77
2022/05/18 04:58:12;;;;;;;9.18;5.78;;;;;;;19.42;56.42;101886.03;4911679;28;119136;-77
2022/05/18 05:00:41;;;;;;;9.15;5.97;;;;;;;19.49;56.73;101886.53;4896274;28;118341;-77
2022/05/18 05:03:08;;;;;;;9.55;6.18;;;;;;;19.55;56.65;101894.16;4916012;28;122669;-77
2022/05/18 05:05:36;;;;;;;8.57;5.82;;;;;;;19.63;56.52;101889.16;4916133;28;123233;-77
2022/05/18 05:08:03;;;;;;;8.57;6.10;;;;;;;19.70;56.70;101889.59;4891680;28;118352;-77
2022/05/18 05:10:30;;;;;;;9.02;5.95;;;;;;;19.78;56.64;101898.06;4912961;28;118579;-77
2022/05/18 05:12:57;;;;;;;8.10;5.93;;;;;;;19.85;56.48;101896.66;4909303;28;124374;-78
2022/05/18 05:15:24;;;;;;;8.65;5.97;;;;;;;19.93;56.43;101897.03;4920288;28;122817;-77
2022/05/18 05:17:52;;;;;;;9.07;6.07;;;;;;;20.02;56.24;101899.09;4909992;28;118565;-77
2022/05/18 05:20:19;;;;;;;10.05;6.40;;;;;;;20.12;56.43;101895.78;4908775;28;117752;-77
2022/05/18 05:22:46;;;;;;;7.15;5.93;;;;;;;20.21;56.38;101895.09;4919125;28;124954;-77
2022/05/18 05:25:14;;;;;;;9.07;6.15;;;;;;;20.32;56.48;101897.91;4905359;28;121853;-77
2022/05/18 05:27:42;;;;;;;9.77;5.53;;;;;;;20.43;56.21;101895.34;4916522;28;118162;-77
2022/05/18 05:30:10;;;;;;;8.45;5.97;;;;;;;20.56;56.38;101910.63;4905065;28;118015;-78
2022/05/18 05:32:39;;;;;;;9.38;6.30;;;;;;;20.70;56.12;101917.75;4911266;28;124097;-77
2022/05/18 05:35:09;;;;;;;9.35;5.53;;;;;;;20.80;56.03;101914.31;4931941;28;122914;-76
2022/05/18 05:37:36;;;;;;;8.43;5.43;;;;;;;20.94;55.85;101915.16;4916599;28;120423;-77
2022/05/18 05:40:06;;;;;;;8.23;5.88;;;;;;;21.05;55.61;101907.16;4912801;28;120476;-76
2022/05/18 05:42:33;;;;;;;7.60;5.32;;;;;;;21.17;55.45;101910.78;4897304;28;124227;-77
2022/05/18 05:45:00;;;;;;;10.05;5.60;;;;;;;21.31;55.33;101915.19;4900292;28;123740;-76
2022/05/18 05:47:27;;;;;;;7.18;5.80;;;;;;;21.44;54.90;101907.94;4904017;28;119379;-76
2022/05/18 05:49:54;;;;;;;8.15;5.90;;;;;;;21.55;54.89;101913.41;4914203;28;118612;-76
2022/05/18 05:52:21;;;;;;;7.22;5.40;;;;;;;21.69;54.58;101911.50;4903264;28;124270;-76
2022/05/18 05:54:48;;;;;;;10.00;5.38;;;;;;;21.81;54.37;101915.09;4892613;28;123423;-76
2022/05/18 05:57:15;;;;;;;6.82;5.30;;;;;;;21.93;54.16;101915.03;4910519;28;120353;-76
2022/05/18 05:59:45;;;;;;;5.60;4.57;;;;;;;22.05;53.96;101917.78;4909956;28;118741;-76
2022/05/18 06:02:15;;;;;;;7.53;5.07;;;;;;;22.18;53.76;101913.16;4923356;28;123907;-76
2022/05/18 06:04:43;;;;;;;5.93;4.72;;;;;;;22.32;53.57;101926.47;4921705;28;123523;-76
2022/05/18 06:07:10;;;;;;;7.72;4.78;;;;;;;22.48;53.53;101919.88;4909959;28;119660;-76
2022/05/18 06:09:37;;;;;;;6.28;4.30;;;;;;;22.64;53.21;101919.50;4909679;28;119617;-76
2022/05/18 06:12:05;;;;;;;6.75;4.70;;;;;;;22.81;53.14;101920.88;4891122;28;123684;-77
2022/05/18 06:14:32;;;;;;;6.45;4.50;;;;;;;23.01;53.16;101922.81;4902162;28;123459;-77
2022/05/18 06:16:59;;;;;;;6.72;4.40;;;;;;;23.22;52.98;101924.81;4898612;28;119609;-77
2022/05/18 06:19:27;;;;;;;6.35;4.65;;;;;;;23.42;52.56;101926.75;4918238;28;119480;-76
2022/05/18 06:21:54;;;;;;;6.57;4.32;;;;;;;23.61;52.03;101925.22;4910637;28;124527;-76
2022/05/18 06:24:21;;;;;;;6.43;4.07;;;;;;;23.77;51.90;101924.78;4946863;28;122305;-76
2022/05/18 06:26:48;;;;;;;5.40;4.15;;;;;;;23.88;51.38;101928.34;4915738;28;119788;-76
2022/05/18 06:29:15;;;;;;;7.82;4.35;;;;;;;24.00;50.93;101925.59;4916664;28;117755;-76
2022/05/18 06:31:42;;;;;;;6.35;4.20;;;;;;;24.11;50.90;101939.06;4946501;28;123470;-76
2022/05/18 06:34:10;;;;;;;6.13;4.55;;;;;;;24.20;50.55;101945.53;4929175;28;123264;-76
2022/05/18 06:36:37;;;;;;;6.30;4.50;;;;;;;24.27;50.42;101934.03;4928456;28;120059;-76
2022/05/18 06:39:04;;;;;;;6.65;4.25;;;;;;;24.33;50.05;101937.22;4927123;28;118726;-76
2022/05/18 06:41:34;;;;;;;5.10;4.30;;;;;;;24.41;50.19;101942.81;4907591;28;123369;-76
2022/05/18 06:44:04;;;;;;;9.00;4.65;;;;;;;24.49;50.05;101948.44;4891583;28;123453;-76
2022/05/18 06:46:34;;;;;;;6.18;4.00;;;;;;;24.56;49.66;101949.63;4893210;28;120972;-76
2022/05/18 06:49:03;;;;;;;7.07;4.75;;;;;;;24.63;49.60;101950.81;4890377;28;119001;-76
2022/05/18 06:51:37;;;;;;;7.38;4.57;;;;;;;24.71;49.26;101946.59;4888337;28;124525;-76
2022/05/18 06:54:05;;;;;;;6.28;4.35;;;;;;;24.81;49.40;101952.94;4904269;28;123189;-76
2022/05/18 06:56:37;;;;;;;8.00;4.85;;;;;;;24.96;49.62;101950.69;4904374;28;118720;-75
2022/05/18 06:59:05;;;;;;;7.05;4.90;;;;;;;25.12;49.38;101955.63;4889115;28;118735;-76
2022/05/18 07:01:33;;;;;;;7.45;4.68;;;;;;;25.31;49.12;101960.28;4889726;28;124667;-75
2022/05/18 07:04:00;;;;;;;6.22;4.72;;;;;;;25.45;49.03;101949.91;4904427;28;123006;-75
2022/05/18 07:06:31;;;;;;;7.93;4.70;;;;;;;25.59;48.65;101964.06;4888364;28;118433;-75
2022/05/18 07:08:59;;;;;;;6.20;4.53;;;;;;;25.69;48.24;101964.91;4889730;28;119072;-75
2022/05/18 07:11:27;;;;;;;6.20;4.38;;;;;;;25.79;48.30;101975.81;4888164;28;123245;-75
2022/05/18 07:13:55;;;;;;;6.03;4.25;;;;;;;25.86;48.09;101970.66;4889891;28;124407;-75
2022/05/18 07:16:23;;;;;;;6.15;4.38;;;;;;;25.91;47.62;101979.22;4889976;28;120587;-74
2022/05/18 07:18:51;;;;;;;6.38;4.97;;;;;;;25.96;47.69;101971.56;4904771;28;119684;-75
2022/05/18 07:21:19;;;;;;;8.95;5.28;;;;;;;26.02;47.56;101965.56;4889738;28;124208;-75
2022/05/18 07:23:47;;;;;;;9.07;5.47;;;;;;;26.07;47.27;101974.13;4889601;28;123674;-74
2022/05/18 07:26:15;;;;;;;8.38;5.57;;;;;;;26.11;47.37;101970.13;4904197;28;118740;-76
2022/05/18 07:28:43;;;;;;;9.77;5.88;;;;;;;26.17;46.92;101968.69;4904076;28;118589;-75
2022/05/18 07:31:11;;;;;;;7.30;5.53;;;;;;;26.21;47.07;101981.81;4889092;28;123713;-75
2022/05/18 07:33:58;;;;;;;10.27;5.40;;;;;;;26.27;46.83;101982.25;4901393;28;123890;-75
2022/05/18 07:36:26;;;;;;;8.02;5.75;;;;;;;26.35;47.31;101982.38;4889818;28;119506;-75
2022/05/18 07:38:53;;;;;;;7.55;5.45;;;;;;;26.42;46.28;101972.66;4904539;28;118858;-75
2022/05/18 07:41:20;;;;;;;6.60;4.70;;;;;;;26.48;46.21;101982.94;4903195;28;123208;-75
2022/05/18 07:43:47;;;;;;;5.65;4.38;;;;;;;26.53;45.66;101986.06;4888351;28;123954;-75
2022/05/18 07:46:14;;;;;;;7.13;4.68;;;;;;;26.57;45.64;101998.34;4892379;28;118971;-75
2022/05/18 07:48:41;;;;;;;6.72;4.22;;;;;;;26.58;45.25;101991.94;4907063;28;117602;-76
2022/05/18 07:51:10;;;;;;;7.20;4.72;;;;;;;26.61;45.57;101999.81;4907579;28;123264;-75
2022/05/18 07:53:37;;;;;;;7.47;4.70;;;;;;;26.64;45.38;101997.84;4892826;28;124079;-75
2022/05/18 07:56:12;;;;;;;6.00;4.20;;;;;;;26.68;45.15;101994.66;4890836;28;119567;-75
2022/05/18 07:58:39;;;;;;;6.93;4.30;;;;;;;26.71;45.25;102004.38;4907458;28;118152;-75
2022/05/18 08:01:08;;;;;;;7.25;4.35;;;;;;;26.73;44.77;101996.91;4892042;28;123731;-75
2022/05/18 08:03:36;;;;;;;6.10;4.28;;;;;;;26.76;45.01;102004.78;4892972;28;123845;-75
2022/05/18 08:06:03;;;;;;;7.00;4.35;;;;;;;26.80;44.80;101998.94;4892450;28;120349;-75
2022/05/18 08:08:30;;;;;;;7.45;4.95;;;;;;;26.87;44.93;102004.63;4908376;28;119628;-75
2022/05/18 08:16:31;;;;;;;8.15;4.93;;;;;;;27.18;44.49;102012.50;4891366;28;119744;-76
2022/05/18 08:18:58;;;;;;;7.85;5.10;;;;;;;27.29;44.25;102012.34;4907176;28;119226;-75
2022/05/18 08:21:25;;;;;;;9.65;5.25;;;;;;;27.41;44.36;102017.59;4906250;28;122100;-75
2022/05/18 08:23:53;;;;;;;10.38;5.97;;;;;;;27.54;44.18;102018.13;4906629;28;123736;-75
2022/05/18 08:26:25;;;;;;;9.25;6.20;;;;;;;27.67;43.83;102013.16;4890383;28;119843;-75
2022/05/18 08:28:52;;;;;;;8.00;5.78;;;;;;;27.83;43.73;102006.19;4891265;28;118603;-75
2022/05/18 08:31:21;;;;;;;9.20;5.57;;;;;;;28.00;43.55;102013.53;4889682;28;123420;-76
2022/05/18 08:33:49;;;;;;;10.07;6.60;;;;;;;28.10;43.23;102008.84;4892274;28;123364;-76
2022/05/18 08:36:18;;;;;;;7.45;5.88;;;;;;;28.18;43.14;102004.47;4906875;28;117387;-76
2022/05/18 08:38:46;;;;;;;6.97;5.38;;;;;;;28.24;42.65;102003.88;4906465;28;118595;-76
2022/05/18 08:41:18;;;;;;;6.75;5.38;;;;;;;28.32;42.66;101996.59;4891666;28;124031;-76
2022/05/18 08:43:50;;;;;;;8.32;5.30;;;;;;;28.39;42.22;102002.28;4906783;28;122969;-76
2022/05/18 08:46:45;;;;;;;11.98;5.63;;;;;;;28.43;42.37;102003.69;4891844;28;119163;-76
2022/05/18 08:49:32;;;;;;;9.85;6.00;;;;;;;28.52;42.11;102002.78;4891545;28;118608;-76
2022/05/18 08:52:21;;;;;;;10.65;5.95;;;;;;;28.63;42.22;102007.13;4890044;28;125050;-76
2022/05/18 08:55:11;;;;;;;12.23;6.47;;;;;;;28.76;41.81;102008.53;4906511;28;122350;-76
2022/05/18 08:57:45;;;;;;;10.55;6.50;;;;;;;28.86;41.99;102004.69;4904204;28;120702;-76
2022/05/18 09:00:24;;;;;;;8.93;6.20;;;;;;;28.98;41.97;102012.59;4906898;28;120407;-76
2022/05/18 09:03:02;;;;;;;9.82;6.40;;;;;;;29.09;41.72;102015.06;4906411;28;124148;-76
2022/05/18 09:05:35;;;;;;;8.15;6.25;;;;;;;29.16;41.76;102021.59;4891369;28;124040;-76
2022/05/18 09:08:16;;;;;;;11.27;7.60;;;;;;;29.25;41.44;102017.03;4904400;28;119215;-76
2022/05/18 09:11:01;;;;;;;9.32;6.28;;;;;;;29.34;41.04;102007.00;4889593;28;119127;-76
2022/05/18 09:13:36;;;;;;;9.90;5.95;;;;;;;29.45;41.33;102009.44;4906256;28;123860;-75
2022/05/18 09:16:24;;;;;;;9.50;6.40;;;;;;;29.54;40.96;102013.91;4891672;28;123942;-76
2022/05/18 09:18:57;;;;;;;9.82;6.38;;;;;;;29.66;40.99;102011.72;4894583;28;119651;-76
2022/05/18 09:21:44;;;;;;;12.18;6.95;;;;;;;29.76;40.98;102011.59;4912386;28;117951;-76
2022/05/18 09:24:51;;;;;;;11.07;6.30;;;;;;;29.85;40.64;102010.59;4924834;28;124024;-75
2022/05/18 09:27:34;;;;;;;8.75;5.70;;;;;;;29.90;40.45;102008.22;4875416;28;123404;-76
2022/05/18 09:30:22;;;;;;;9.27;6.45;;;;;;;29.99;40.79;102004.47;4889586;28;119327;-76
2022/05/18 09:33:08;;;;;;;10.73;6.90;;;;;;;30.11;40.58;102009.59;4891667;28;118578;-75
2022/05/18 09:35:35;;;;;;;7.88;6.38;;;;;;;30.20;40.65;102016.78;4905721;28;122974;-76
2022/05/18 09:38:11;;;;;;;11.32;6.30;;;;;;;30.28;40.02;102005.84;4905524;28;123577;-76
2022/05/18 09:40:45;;;;;;;10.15;6.68;;;;;;;30.35;40.25;102001.44;4889656;28;119788;-76
2022/05/18 09:43:46;;;;;;;9.77;7.00;;;;;;;30.42;39.66;102002.47;4890196;28;119047;-76
2022/05/18 09:46:19;;;;;;;9.48;6.65;;;;;;;30.46;40.09;102003.81;4910175;28;123344;-76
2022/05/18 09:48:57;;;;;;;8.98;5.22;;;;;;;30.53;40.11;101997.66;4909501;28;123687;-76
2022/05/18 09:51:25;;;;;;;8.35;4.97;;;;;;;30.58;39.77;102006.22;4909766;28;119983;-75
2022/05/18 09:53:53;;;;;;;7.03;4.63;;;;;;;30.64;39.69;102005.50;4908844;28;119319;-75
2022/05/18 09:56:32;;;;;;;7.80;4.38;;;;;;;30.69;39.20;101997.63;4925818;28;124235;-75
2022/05/18 09:59:06;;;;;;;9.65;4.57;;;;;;;30.70;39.15;101996.59;4907869;28;123027;-75
2022/05/18 10:07:30;;;;;;;7.28;4.35;;;;;;;30.88;38.84;102006.50;4908883;28;124288;-75
2022/05/18 10:10:16;;;;;;;9.05;3.92;;;;;;;30.98;39.07;102001.69;4904470;28;122801;-75
2022/05/18 10:12:48;;;;;;;6.65;4.03;;;;;;;31.08;39.06;102007.84;4889447;28;119077;-76
2022/05/18 10:15:32;;;;;;;5.30;3.80;;;;;;;31.14;38.52;102007.13;4890090;28;118100;-76
2022/05/18 10:18:15;;;;;;;6.43;3.60;;;;;;;31.12;38.68;102009.19;4889212;28;124567;-76
2022/05/18 10:20:58;;;;;;;4.97;3.40;;;;;;;31.14;38.64;102000.81;4911392;28;123970;-77
2022/05/18 10:23:52;;;;;;;7.63;3.45;;;;;;;31.15;38.39;102003.34;4912882;28;118492;-77
2022/05/18 10:26:25;;;;;;;5.18;3.30;;;;;;;31.17;38.48;102001.28;4896792;28;118478;-76
2022/05/18 10:29:18;;;;;;;5.15;2.60;;;;;;;31.23;38.64;101997.84;4907296;28;122989;-76
2022/05/18 10:32:01;;;;;;;5.15;3.05;;;;;;;31.37;38.55;101992.66;4922096;28;123636;-77
2022/05/18 10:34:32;;;;;;;5.65;3.10;;;;;;;31.51;38.26;101991.91;4922031;28;118349;-77
2022/05/18 10:37:01;;;;;;;4.70;3.38;;;;;;;31.60;38.11;101990.81;4894803;28;117791;-75
2022/05/18 10:39:36;;;;;;;4.88;3.50;;;;;;;31.62;37.76;101988.75;4905959;28;122847;-75
2022/05/18 10:42:28;;;;;;;6.63;3.17;;;;;;;31.65;37.73;101976.59;4896158;28;125613;-76
2022/05/18 10:44:59;;;;;;;5.03;3.10;;;;;;;31.72;37.82;101973.97;4906449;28;120313;-75
2022/05/18 10:47:36;;;;;;;5.78;3.65;;;;;;;31.80;37.29;101973.94;4894212;28;120301;-76
2022/05/18 10:50:24;;;;;;;4.35;3.20;;;;;;;31.87;37.28;101974.88;4908562;28;125489;-77
2022/05/18 10:53:15;;;;;;;4.93;3.50;;;;;;;31.91;37.16;101975.38;4913229;28;123035;-76
2022/05/18 10:56:00;;;;;;;5.15;3.42;;;;;;;31.94;37.09;101970.38;4914859;28;117579;-76
2022/05/18 10:58:39;;;;;;;4.88;3.45;;;;;;;31.97;37.39;101972.78;4907373;28;118929;-76
2022/05/18 11:01:25;;;;;;;5.20;3.47;;;;;;;32.01;37.00;101965.88;4923503;28;123188;-74
2022/05/18 11:04:15;;;;;;;5.53;3.53;;;;;;;32.05;37.30;101965.56;4889604;28;124730;-74
2022/05/18 11:06:42;;;;;;;4.97;3.67;;;;;;;32.11;36.77;101964.81;4896852;28;119113;-74
2022/05/18 11:09:18;;;;;;;5.90;3.50;;;;;;;32.17;36.83;101959.47;4924913;28;119226;-75
2022/05/18 11:11:55;;;;;;;4.70;3.28;;;;;;;32.23;36.40;101967.94;4897382;28;124443;-74
2022/05/18 11:14:55;;;;;;;5.93;3.15;;;;;;;32.23;36.40;101963.34;4890238;28;123959;-75
2022/05/18 11:17:45;;;;;;;4.85;3.42;;;;;;;32.27;36.40;101964.69;4890944;28;119245;-74
2022/05/18 11:20:25;;;;;;;5.10;3.45;;;;;;;32.32;36.69;101962.22;4896981;28;119615;-74
2022/05/18 11:23:02;;;;;;;4.57;3.30;;;;;;;32.40;36.27;101959.41;4901983;28;123674;-75
2022/05/18 11:25:43;;;;;;;4.70;3.78;;;;;;;32.51;36.58;101959.97;4903290;28;124490;-74
2022/05/18 11:28:57;;;;;;;6.25;4.03;;;;;;;32.58;36.82;101966.44;4899074;28;118522;-75
2022/05/18 11:31:39;;;;;;;8.15;4.65;;;;;;;32.63;36.52;101969.50;4904321;28;119240;-75
2022/05/18 11:34:40;;;;;;;5.80;4.50;;;;;;;32.65;36.15;101959.19;4877272;28;122973;-76
2022/05/18 11:37:35;;;;;;;7.57;4.13;;;;;;;32.70;36.24;101959.47;4888031;28;123211;-75
2022/05/18 11:40:24;;;;;;;6.03;4.80;;;;;;;32.68;36.06;101956.06;4898035;28;120003;-75
2022/05/18 11:43:25;;;;;;;6.57;3.80;;;;;;;32.66;36.07;101958.13;4898145;28;118384;-75
2022/05/18 11:46:21;;;;;;;7.13;4.18;;;;;;;32.65;35.98;101959.19;4894337;28;124922;-76
2022/05/18 11:49:00;;;;;;;4.95;3.40;;;;;;;32.67;35.75;101962.56;4918129;28;123624;-76
2022/05/18 11:51:32;;;;;;;4.90;3.35;;;;;;;32.68;36.33;101956.06;4906684;28;119508;-77
2022/05/18 11:54:11;;;;;;;5.78;3.97;;;;;;;32.70;35.73;101948.50;4914582;28;119102;-75
2022/05/18 11:56:50;;;;;;;6.63;3.95;;;;;;;32.75;35.62;101946.00;4894561;28;124484;-76